createdAt,value
2022-12-14T00:01:11.141Z,4.20
2022-12-14T00:03:41.225Z,3.83
2022-12-14T00:06:16.626Z,3.63
2022-12-14T00:08:44.958Z,3.90
2022-12-14T00:11:14.337Z,3.50
2022-12-14T00:13:43.772Z,3.53
2022-12-14T00:16:14.436Z,3.73
2022-12-14T00:18:43.273Z,3.20
2022-12-14T00:21:15.877Z,4.57
2022-12-14T00:23:46.716Z,3.77
2022-12-14T00:26:16.926Z,3.70
2022-12-14T00:28:46.395Z,2.53
2022-12-14T00:31:15.455Z,4.07
2022-12-14T00:33:44.229Z,3.87
2022-12-14T00:36:16.134Z,3.07
2022-12-14T00:38:44.677Z,3.47
2022-12-14T00:41:15.348Z,3.47
2022-12-14T00:43:44.075Z,3.37
2022-12-14T00:46:12.628Z,3.63
2022-12-14T00:48:41.447Z,3.53
2022-12-14T00:51:09.617Z,3.07
2022-12-14T00:53:39.045Z,3.40
2022-12-14T00:56:08.817Z,3.13
2022-12-14T00:58:36.842Z,3.40
2022-12-14T01:01:06.735Z,3.20
2022-12-14T01:03:35.523Z,3.80
2022-12-14T01:06:03.609Z,3.20
2022-12-14T01:08:35.971Z,3.37
2022-12-14T01:11:06.651Z,2.88
2022-12-14T01:13:35.760Z,3.20
2022-12-14T01:16:04.964Z,3.50
2022-12-14T01:18:35.864Z,3.67
2022-12-14T01:21:13.273Z,3.10
2022-12-14T01:23:42.082Z,3.83
2022-12-14T01:26:11.773Z,3.07
2022-12-14T01:28:41.901Z,3.27
2022-12-14T01:31:17.613Z,3.67
2022-12-14T01:36:20.290Z,3.30
2022-12-14T01:38:54.918Z,3.40
2022-12-14T01:41:27.010Z,3.58
2022-12-14T01:43:57.767Z,4.07
2022-12-14T01:46:30.829Z,2.30
2022-12-14T01:49:06.649Z,3.60
2022-12-14T01:51:37.924Z,3.00
2022-12-14T01:54:09.916Z,2.40
2022-12-14T01:56:42.509Z,3.23
2022-12-14T01:59:16.293Z,3.27
2022-12-14T02:01:45.033Z,3.73
2022-12-14T02:04:20.611Z,3.13
2022-12-14T02:06:50.466Z,3.57
2022-12-14T02:09:22.725Z,3.10
2022-12-14T02:11:59.642Z,3.30
2022-12-14T02:14:28.302Z,3.67
2022-12-14T02:16:59.051Z,3.33
2022-12-14T02:19:27.407Z,3.93
2022-12-14T02:22:15.127Z,4.43
2022-12-14T02:25:08.242Z,3.33
2022-12-14T02:28:16.402Z,3.45
2022-12-14T02:30:57.404Z,4.03
2022-12-14T02:33:44.936Z,2.80
2022-12-14T02:36:21.172Z,3.03
2022-12-14T02:39:02.144Z,3.43
2022-12-14T02:41:38.331Z,4.30
2022-12-14T02:44:16.471Z,3.37
2022-12-14T02:46:56.487Z,2.80
2022-12-14T02:49:41.678Z,3.20
2022-12-14T02:52:28.418Z,2.73
2022-12-14T02:55:02.873Z,2.83
2022-12-14T02:57:42.036Z,2.90
2022-12-14T03:00:13.866Z,2.97
2022-12-14T03:02:47.436Z,2.60
2022-12-14T03:05:16.203Z,2.60
2022-12-14T03:07:48.768Z,2.63
2022-12-14T03:10:28.606Z,2.70
2022-12-14T03:13:06.451Z,3.07
2022-12-14T03:16:54.780Z,2.93
2022-12-14T03:19:31.551Z,2.97
2022-12-14T03:22:08.763Z,3.30
2022-12-14T03:24:42.336Z,2.80
2022-12-14T03:27:16.350Z,2.60
2022-12-14T03:29:50.788Z,2.73
2022-12-14T03:32:23.712Z,2.87
2022-12-14T03:34:57.680Z,2.88
2022-12-14T03:37:33.410Z,2.43
2022-12-14T03:40:02.012Z,3.00
2022-12-14T03:42:40.940Z,2.57
2022-12-14T03:45:18.479Z,2.93
2022-12-14T03:48:01.618Z,2.50
2022-12-14T03:50:37.391Z,2.20
2022-12-14T03:53:11.067Z,3.27
2022-12-14T03:55:49.350Z,3.27
2022-12-14T03:58:29.832Z,2.43
2022-12-14T04:01:09.051Z,2.80
2022-12-14T04:03:48.632Z,2.40
2022-12-14T04:06:28.678Z,2.53
2022-12-14T04:09:12.379Z,2.50
2022-12-14T04:12:04.040Z,2.53
2022-12-14T04:14:54.376Z,2.50
2022-12-14T04:17:46.969Z,3.33
2022-12-14T04:20:20.738Z,3.37
2022-12-14T04:22:53.129Z,2.50
2022-12-14T04:25:43.948Z,2.33
2022-12-14T04:28:30.109Z,3.40
2022-12-14T04:31:01.885Z,3.07
2022-12-14T04:33:49.579Z,2.73
2022-12-14T04:36:25.180Z,3.53
2022-12-14T04:38:56.861Z,2.53
2022-12-14T04:41:28.604Z,3.00
2022-12-14T04:44:01.305Z,3.37
2022-12-14T04:46:36.320Z,2.72
2022-12-14T04:49:14.746Z,3.30
2022-12-14T04:51:50.817Z,3.23
2022-12-14T04:54:25.394Z,3.63
2022-12-14T04:57:01.147Z,2.87
2022-12-14T04:59:30.481Z,2.77
2022-12-14T05:02:09.848Z,3.30
2022-12-14T05:04:55.381Z,3.87
2022-12-14T05:07:37.464Z,3.70
2022-12-14T05:10:11.853Z,3.00
2022-12-14T05:12:49.783Z,3.20
2022-12-14T05:15:23.745Z,3.80
2022-12-14T05:17:53.095Z,3.50
2022-12-14T05:20:24.810Z,3.60
2022-12-14T05:22:54.162Z,4.27
2022-12-14T05:25:24.957Z,3.03
2022-12-14T05:27:53.299Z,3.93
2022-12-14T05:30:21.758Z,3.97
2022-12-14T05:32:52.410Z,3.20
2022-12-14T05:35:21.437Z,3.43
2022-12-14T05:37:49.568Z,4.27
2022-12-14T05:40:19.636Z,3.23
2022-12-14T05:42:52.356Z,3.60
2022-12-14T05:45:23.563Z,3.87
2022-12-14T05:47:51.697Z,3.87
2022-12-14T05:50:19.827Z,3.43
2022-12-14T05:52:47.776Z,3.57
2022-12-14T05:55:16.654Z,4.20
2022-12-14T05:57:46.197Z,4.47
2022-12-14T06:00:15.758Z,4.10
2022-12-14T06:02:43.810Z,4.00
2022-12-14T06:05:12.079Z,4.37
2022-12-14T06:07:40.101Z,3.97
2022-12-14T06:10:08.469Z,4.33
2022-12-14T06:12:36.426Z,4.23
2022-12-14T06:15:07.462Z,4.37
2022-12-14T06:17:35.920Z,3.83
2022-12-14T06:20:05.214Z,4.57
2022-12-14T06:22:33.369Z,4.33
2022-12-14T06:25:02.469Z,5.10
2022-12-14T06:27:33.219Z,4.90
2022-12-14T06:30:01.800Z,5.07
2022-12-14T06:32:36.901Z,4.40
2022-12-14T06:35:09.542Z,4.65
2022-12-14T06:37:37.999Z,5.57
2022-12-14T06:40:07.794Z,6.30
2022-12-14T06:42:40.142Z,5.50
2022-12-14T06:45:09.134Z,5.50
2022-12-14T06:47:38.558Z,3.93
2022-12-14T06:50:07.444Z,5.03
2022-12-14T06:52:39.662Z,6.03
2022-12-14T06:55:08.902Z,4.50
2022-12-14T06:57:39.407Z,5.77
2022-12-14T07:00:11.465Z,5.27
2022-12-14T07:02:41.009Z,5.43
2022-12-14T07:05:09.753Z,6.07
2022-12-14T07:07:38.099Z,4.57
2022-12-14T07:10:07.280Z,4.67
2022-12-14T07:12:35.467Z,5.30
2022-12-14T07:15:07.616Z,5.83
2022-12-14T07:17:38.235Z,5.00
2022-12-14T07:20:09.744Z,6.20
2022-12-14T07:22:38.828Z,6.37
2022-12-14T07:25:09.894Z,5.50
2022-12-14T07:27:37.934Z,6.27
2022-12-14T07:30:09.295Z,5.60
2022-12-14T07:32:37.648Z,6.53
2022-12-14T07:35:13.095Z,5.30
2022-12-14T07:37:54.081Z,5.43
2022-12-14T07:40:22.467Z,5.77
2022-12-14T07:42:50.846Z,4.60
2022-12-14T07:45:20.099Z,5.57
2022-12-14T07:47:48.648Z,4.73
2022-12-14T07:50:20.332Z,5.23
2022-12-14T07:52:49.220Z,5.53
2022-12-14T07:55:21.304Z,5.20
2022-12-14T07:57:49.724Z,5.40
2022-12-14T08:00:20.254Z,6.10
2022-12-14T08:02:48.844Z,5.43
2022-12-14T08:05:20.610Z,5.83
2022-12-14T08:07:48.936Z,5.90
2022-12-14T08:10:17.166Z,5.63
2022-12-14T08:12:45.564Z,5.80
2022-12-14T08:17:53.496Z,5.67
2022-12-14T08:20:24.615Z,4.78
2022-12-14T08:22:53.818Z,6.13
2022-12-14T08:25:24.945Z,6.80
2022-12-14T08:27:53.340Z,6.03
2022-12-14T08:30:21.474Z,5.83
2022-12-14T08:32:49.788Z,5.00
2022-12-14T08:35:19.417Z,6.40
2022-12-14T08:37:49.224Z,5.97
2022-12-14T08:40:18.577Z,5.77
2022-12-14T08:42:46.961Z,5.63
2022-12-14T08:45:15.149Z,5.90
2022-12-14T08:47:47.693Z,5.23
2022-12-14T08:50:16.212Z,5.93
2022-12-14T08:52:48.011Z,5.53
2022-12-14T08:55:16.326Z,7.03
2022-12-14T08:57:44.689Z,6.40
2022-12-14T09:00:16.514Z,6.53
2022-12-14T09:02:44.967Z,6.17
2022-12-14T09:05:25.608Z,5.80
2022-12-14T09:07:55.649Z,5.43
2022-12-14T09:10:26.667Z,6.63
2022-12-14T09:12:54.996Z,5.90
2022-12-14T09:15:26.644Z,7.13
2022-12-14T09:17:57.782Z,6.97
2022-12-14T09:20:25.964Z,6.90
2022-12-14T09:22:55.986Z,6.23
2022-12-14T09:25:24.016Z,7.47
2022-12-14T09:27:57.673Z,5.60
2022-12-14T09:30:35.012Z,6.70
2022-12-14T09:33:03.342Z,7.10
2022-12-14T09:35:34.033Z,5.77
2022-12-14T09:38:13.537Z,7.13
2022-12-14T09:40:49.416Z,5.90
2022-12-14T09:43:38.819Z,5.97
2022-12-14T09:46:26.045Z,6.40
2022-12-14T09:48:59.695Z,6.43
2022-12-14T09:51:37.109Z,6.87
2022-12-14T09:54:18.312Z,6.50
2022-12-14T09:56:56.354Z,6.77
2022-12-14T09:59:35.720Z,7.30
2022-12-14T10:02:43.992Z,6.50
2022-12-14T10:05:36.101Z,7.07
2022-12-14T10:08:35.592Z,6.37
2022-12-14T10:11:22.188Z,6.60
2022-12-14T10:14:05.957Z,7.23
2022-12-14T10:16:51.861Z,7.10
2022-12-14T10:19:39.154Z,7.33
2022-12-14T10:22:13.230Z,6.37
2022-12-14T10:24:44.445Z,6.70
2022-12-14T10:27:25.134Z,6.27
2022-12-14T10:29:59.576Z,7.20
2022-12-14T10:32:36.082Z,6.90
2022-12-14T10:37:45.866Z,6.50
2022-12-14T10:40:31.213Z,6.57
2022-12-14T10:43:30.331Z,6.47
2022-12-14T10:46:13.742Z,6.70
2022-12-14T10:48:50.667Z,6.40
2022-12-14T10:51:23.318Z,6.60
2022-12-14T10:53:55.871Z,6.03
2022-12-14T10:56:27.694Z,6.95
2022-12-14T10:59:35.138Z,6.60
2022-12-14T11:02:10.516Z,6.93
2022-12-14T11:04:41.147Z,6.77
2022-12-14T11:07:15.191Z,5.13
2022-12-14T11:09:44.571Z,6.13
2022-12-14T11:12:20.708Z,6.33
2022-12-14T11:14:57.624Z,6.90
2022-12-14T11:17:38.447Z,6.27
2022-12-14T11:20:18.302Z,6.57
2022-12-14T11:22:48.403Z,6.27
2022-12-14T11:25:39.054Z,6.50
2022-12-14T11:28:21.825Z,7.23
2022-12-14T11:30:58.403Z,6.47
2022-12-14T11:33:36.028Z,6.50
2022-12-14T11:36:04.831Z,7.47
2022-12-14T11:38:35.988Z,6.50
2022-12-14T11:41:11.095Z,6.90
2022-12-14T11:43:41.268Z,6.10
2022-12-14T11:46:10.807Z,6.53
2022-12-14T11:48:49.079Z,7.03
2022-12-14T11:51:17.083Z,6.00
2022-12-14T11:54:01.988Z,6.07
2022-12-14T11:56:30.495Z,4.77
2022-12-14T11:58:58.696Z,7.67
2022-12-14T12:01:28.413Z,6.30
2022-12-14T12:03:59.419Z,6.57
2022-12-14T12:06:30.133Z,6.37
2022-12-14T12:09:00.636Z,5.17
2022-12-14T12:11:32.173Z,6.40
2022-12-14T12:14:02.665Z,5.37
2022-12-14T12:16:35.474Z,5.60
2022-12-14T12:19:12.440Z,6.00
2022-12-14T12:21:42.719Z,5.73
2022-12-14T12:24:18.351Z,6.27
2022-12-14T12:26:50.233Z,4.83
2022-12-14T12:29:24.616Z,6.13
2022-12-14T12:31:58.695Z,5.07
2022-12-14T12:34:30.572Z,6.07
2022-12-14T12:37:26.842Z,6.53
2022-12-14T12:40:00.753Z,5.83
2022-12-14T12:42:42.490Z,5.68
2022-12-14T12:45:19.141Z,5.80
2022-12-14T12:47:53.328Z,5.13
2022-12-14T12:50:26.926Z,5.67
2022-12-14T12:53:03.635Z,4.90
2022-12-14T12:55:36.611Z,6.40
2022-12-14T12:58:09.801Z,5.63
2022-12-14T13:00:41.341Z,5.30
2022-12-14T13:03:19.203Z,6.63
2022-12-14T13:05:49.136Z,5.23
2022-12-14T13:08:27.226Z,5.67
2022-12-14T13:13:52.584Z,5.67
2022-12-14T13:19:04.866Z,5.57
2022-12-14T13:24:22.835Z,7.00
2022-12-14T13:27:20.824Z,6.67
2022-12-14T13:30:01.212Z,6.33
2022-12-14T13:32:46.886Z,6.20
2022-12-14T13:35:28.642Z,5.77
2022-12-14T13:38:13.745Z,4.87
2022-12-14T13:41:00.199Z,5.90
2022-12-14T13:43:39.603Z,5.27
2022-12-14T13:46:12.598Z,5.27
2022-12-14T13:48:44.173Z,5.05
2022-12-14T13:51:28.317Z,5.43
2022-12-14T13:53:59.163Z,5.13
2022-12-14T13:56:33.356Z,5.30
2022-12-14T13:59:06.474Z,5.47
2022-12-14T14:01:57.675Z,5.07
2022-12-14T14:04:28.543Z,4.30
2022-12-14T14:07:19.160Z,5.50
2022-12-14T14:10:01.892Z,5.27
2022-12-14T14:12:44.385Z,4.93
2022-12-14T14:15:36.834Z,8.17
2022-12-14T14:20:40.007Z,8.63
2022-12-14T14:23:37.232Z,7.87
2022-12-14T14:26:20.272Z,6.13
2022-12-14T14:28:55.009Z,5.00
2022-12-14T14:31:45.110Z,4.80
2022-12-14T14:34:22.169Z,4.93
2022-12-14T14:36:51.869Z,4.97
2022-12-14T14:39:55.447Z,4.57
2022-12-14T14:42:25.258Z,5.57
2022-12-14T14:44:58.215Z,4.83
2022-12-14T14:47:29.881Z,4.73
2022-12-14T14:50:01.758Z,5.50
2022-12-14T14:52:57.717Z,5.63
2022-12-14T14:56:01.078Z,4.20
2022-12-14T14:59:39.532Z,4.37
2022-12-14T15:02:29.586Z,5.67
2022-12-14T15:05:17.470Z,5.23
2022-12-14T15:07:48.000Z,4.93
2022-12-14T15:10:35.652Z,5.37
2022-12-14T15:13:09.756Z,7.67
2022-12-14T15:15:44.156Z,5.77
2022-12-14T15:18:21.311Z,5.47
2022-12-14T15:20:57.138Z,5.18
2022-12-14T15:23:31.752Z,5.00
2022-12-14T15:26:02.662Z,5.80
2022-12-14T15:31:05.282Z,5.43
2022-12-14T15:33:37.324Z,5.20
2022-12-14T15:36:09.155Z,5.32
2022-12-14T15:38:40.142Z,5.87
2022-12-14T15:41:16.583Z,6.27
2022-12-14T15:43:47.455Z,4.60
2022-12-14T15:46:20.503Z,5.87
2022-12-14T15:51:29.955Z,5.50
2022-12-14T15:53:59.659Z,5.50
2022-12-14T15:56:31.435Z,5.37
2022-12-14T15:59:02.446Z,5.00
2022-12-14T16:01:36.028Z,5.20
2022-12-14T16:04:07.432Z,5.10
2022-12-14T16:06:41.953Z,5.27
2022-12-14T16:09:21.032Z,5.70
2022-12-14T16:11:52.363Z,4.97
2022-12-14T16:14:24.850Z,6.47
2022-12-14T16:16:54.786Z,5.13
2022-12-14T16:19:28.792Z,4.73
2022-12-14T16:22:21.435Z,4.90
2022-12-14T16:25:03.452Z,5.83
2022-12-14T16:27:32.331Z,6.20
2022-12-14T16:30:23.318Z,7.00
2022-12-14T16:33:08.332Z,5.60
2022-12-14T16:35:39.081Z,5.77
2022-12-14T16:38:09.061Z,6.17
2022-12-14T16:40:39.667Z,6.13
2022-12-14T16:43:24.342Z,5.70
2022-12-14T16:46:12.611Z,6.20
2022-12-14T16:48:44.872Z,5.13
2022-12-14T16:54:30.861Z,5.77
2022-12-14T16:57:04.524Z,4.83
2022-12-14T16:59:41.377Z,6.23
2022-12-14T17:02:26.612Z,5.33
2022-12-14T17:04:59.967Z,4.93
2022-12-14T17:07:31.303Z,5.67
2022-12-14T17:10:01.648Z,6.00
2022-12-14T17:12:29.757Z,6.30
2022-12-14T17:14:57.972Z,5.53
2022-12-14T17:17:35.031Z,5.03
2022-12-14T17:20:11.999Z,6.07
2022-12-14T17:22:42.892Z,6.47
2022-12-14T17:25:18.129Z,6.83
2022-12-14T17:27:49.520Z,5.17
2022-12-14T17:30:19.653Z,5.53
2022-12-14T17:32:49.037Z,5.87
2022-12-14T17:35:20.280Z,6.03
2022-12-14T17:37:51.767Z,5.60
2022-12-14T17:40:19.775Z,5.70
2022-12-14T17:42:52.364Z,5.10
2022-12-14T17:45:24.526Z,4.63
2022-12-14T17:47:53.019Z,6.28
2022-12-14T17:50:23.386Z,6.10
2022-12-14T17:52:51.882Z,5.47
2022-12-14T17:55:21.951Z,5.70
2022-12-14T17:57:50.746Z,5.50
2022-12-14T18:00:40.771Z,5.67
2022-12-14T18:03:11.946Z,6.10
2022-12-14T18:05:48.304Z,6.43
2022-12-14T18:08:17.481Z,6.20
2022-12-14T18:10:45.987Z,6.47
2022-12-14T18:13:16.645Z,5.47
2022-12-14T18:18:55.159Z,7.13
2022-12-14T18:21:28.910Z,6.00
2022-12-14T18:23:57.911Z,6.80
2022-12-14T18:26:26.076Z,5.63
2022-12-14T18:28:56.389Z,6.80
2022-12-14T18:31:29.965Z,6.78
2022-12-14T18:33:59.657Z,7.30
2022-12-14T18:36:27.680Z,7.60
2022-12-14T18:38:56.149Z,6.07
2022-12-14T18:41:26.232Z,6.37
2022-12-14T18:43:55.881Z,6.43
2022-12-14T18:46:24.280Z,8.47
2022-12-14T18:48:52.403Z,6.63
2022-12-14T18:51:24.190Z,6.37
2022-12-14T18:53:52.567Z,6.37
2022-12-14T18:56:22.270Z,6.87
2022-12-14T18:58:50.647Z,6.43
2022-12-14T19:01:23.919Z,6.97
2022-12-14T19:09:15.498Z,8.07
2022-12-14T19:11:44.537Z,7.53
2022-12-14T19:14:13.439Z,6.27
2022-12-14T19:16:44.346Z,6.33
2022-12-14T19:19:12.761Z,7.47
2022-12-14T19:21:42.404Z,7.47
2022-12-14T19:24:13.620Z,7.13
2022-12-14T19:26:41.874Z,7.90
2022-12-14T19:29:12.272Z,7.13
2022-12-14T19:31:40.682Z,6.80
2022-12-14T19:34:09.740Z,8.20
2022-12-14T19:36:38.120Z,28.77
2022-12-14T19:39:07.931Z,15.03
2022-12-14T19:41:39.422Z,9.88
2022-12-14T19:44:07.669Z,7.43
2022-12-14T19:46:36.302Z,7.90
2022-12-14T19:49:04.476Z,7.83
2022-12-14T19:51:32.795Z,7.30
2022-12-14T19:54:02.961Z,8.60
2022-12-14T19:56:32.906Z,9.30
2022-12-14T19:59:03.616Z,7.43
2022-12-14T20:01:39.639Z,8.13
2022-12-14T20:04:10.173Z,7.53
2022-12-14T20:06:39.129Z,7.53
2022-12-14T20:09:09.927Z,8.37
2022-12-14T20:11:42.071Z,7.67
2022-12-14T20:14:11.270Z,7.47
2022-12-14T20:16:41.063Z,8.13
2022-12-14T20:19:09.400Z,8.33
2022-12-14T20:21:37.826Z,8.60
2022-12-14T20:24:06.456Z,7.23
2022-12-14T20:26:34.853Z,7.03
2022-12-14T20:29:06.039Z,7.33
2022-12-14T20:31:34.967Z,7.33
2022-12-14T20:34:05.407Z,8.57
2022-12-14T20:36:33.931Z,8.03
2022-12-14T20:39:02.676Z,8.07
2022-12-14T20:41:33.095Z,8.37
2022-12-14T20:44:02.972Z,7.80
2022-12-14T20:46:34.465Z,8.00
2022-12-14T20:49:04.689Z,8.87
2022-12-14T20:51:36.087Z,8.60
2022-12-14T20:54:05.174Z,8.57
2022-12-14T20:56:36.324Z,8.17
2022-12-14T20:59:05.876Z,8.47
2022-12-14T21:01:36.719Z,7.77
2022-12-14T21:04:05.755Z,7.23
2022-12-14T21:06:37.003Z,8.80
2022-12-14T21:09:11.662Z,9.97
2022-12-14T21:11:59.999Z,8.53
2022-12-14T21:14:29.899Z,8.67
2022-12-14T21:17:03.770Z,9.32
2022-12-14T21:19:33.159Z,8.17
2022-12-14T21:22:03.973Z,9.47
2022-12-14T21:27:23.100Z,9.40
2022-12-14T21:29:52.159Z,9.23
2022-12-14T21:32:22.856Z,10.73
2022-12-14T21:34:51.437Z,9.50
2022-12-14T21:37:20.471Z,10.33
2022-12-14T21:39:54.353Z,8.17
2022-12-14T21:42:23.722Z,8.47
2022-12-14T21:44:53.406Z,9.93
2022-12-14T21:47:29.380Z,8.37
2022-12-14T21:49:57.890Z,8.50
2022-12-14T21:52:28.200Z,8.37
2022-12-14T21:54:58.517Z,8.17
2022-12-14T21:57:49.700Z,8.40
2022-12-14T22:00:21.638Z,9.10
2022-12-14T22:02:51.298Z,8.63
2022-12-14T22:05:24.032Z,8.60
2022-12-14T22:07:55.374Z,8.30
2022-12-14T22:10:25.282Z,8.67
2022-12-14T22:12:53.720Z,7.83
2022-12-14T22:15:22.006Z,7.70
2022-12-14T22:17:54.419Z,7.97
2022-12-14T22:20:22.387Z,8.40
2022-12-14T22:22:50.506Z,9.07
2022-12-14T22:25:21.088Z,8.00
2022-12-14T22:27:49.681Z,7.17
2022-12-14T22:30:19.137Z,9.27
2022-12-14T22:32:47.828Z,8.20
2022-12-14T22:35:18.185Z,8.67
2022-12-14T22:37:46.216Z,8.90
2022-12-14T22:40:14.277Z,8.90
2022-12-14T22:42:42.322Z,8.87
2022-12-14T22:45:11.161Z,9.30
2022-12-14T22:47:39.116Z,8.87
2022-12-14T22:50:08.178Z,8.60
2022-12-14T22:52:37.629Z,8.57
2022-12-14T22:55:06.642Z,8.47
2022-12-14T22:57:41.529Z,10.27
2022-12-14T23:00:16.275Z,10.82
2022-12-14T23:02:48.271Z,9.83
2022-12-14T23:05:18.225Z,9.32
2022-12-14T23:07:47.893Z,9.20
2022-12-14T23:10:33.591Z,8.67
2022-12-14T23:13:19.086Z,8.37
2022-12-14T23:16:04.552Z,8.20
2022-12-14T23:20:13.505Z,8.07
2022-12-14T23:22:59.749Z,8.77
2022-12-14T23:25:46.496Z,8.07
2022-12-14T23:28:32.031Z,7.37
2022-12-14T23:31:19.849Z,6.93
2022-12-14T23:34:05.495Z,7.27
2022-12-14T23:36:52.394Z,7.43
2022-12-14T23:39:37.942Z,8.17
2022-12-14T23:42:24.071Z,6.83
2022-12-14T23:45:09.504Z,8.00
2022-12-14T23:47:55.153Z,7.27
2022-12-14T23:50:42.961Z,8.10
2022-12-14T23:53:30.022Z,8.00
2022-12-14T23:56:15.611Z,8.60
2022-12-14T23:59:01.462Z,8.60
